BAW12S EDDL-EGLL
Flight info
| Callsign | BAW12S |
|---|---|
| Flight time | 0h 57m |
| Altitude | 32000 |
| Route | NETEX3H NETEX Z282 DIBIR L179 SASKI L608 LOGAN |
| Aircraft | A320/M-SDE3FGHIRWY/LB1 |
Departure
| Time | 2026-05-04 20:44 |
|---|---|
| Airport | Düsseldorf Airport (EDDL) |
Arrival
| Time | 2026-05-04 21:42 |
|---|---|
| Airport | London Heathrow Airport (EGLL) |
| Time | Latitude | Longitude | Altitude | Speed | Heading |
|---|---|---|---|---|---|
| 2026-05-04 20:20 | 51.28043 | 6.76369 | 127 ft | 0 kts | 197° |
| 2026-05-04 20:33 | 51.28046 | 6.76370 | 112 ft | 3 kts | 197° |
| 2026-05-04 20:33 | 51.28070 | 6.76382 | 103 ft | 4 kts | 197° |
| 2026-05-04 20:34 | 51.28091 | 6.76391 | 126 ft | 4 kts | 203° |
| 2026-05-04 20:34 | 51.28103 | 6.76399 | 125 ft | 4 kts | 292° |
| 2026-05-04 20:34 | 51.28089 | 6.76422 | 128 ft | 2 kts | 324° |
| 2026-05-04 20:34 | 51.28095 | 6.76415 | 126 ft | 4 kts | 318° |
| 2026-05-04 20:35 | 51.28094 | 6.76395 | 126 ft | 4 kts | 236° |
| 2026-05-04 20:35 | 51.28079 | 6.76386 | 132 ft | 1 kts | 197° |
| 2026-05-04 20:35 | 51.28090 | 6.76392 | 126 ft | 4 kts | 216° |
| 2026-05-04 20:35 | 51.28098 | 6.76407 | 126 ft | 4 kts | 305° |
| 2026-05-04 20:36 | 51.28081 | 6.76432 | 125 ft | 4 kts | 324° |
| 2026-05-04 20:36 | 51.28063 | 6.76452 | 126 ft | 1 kts | 327° |
| 2026-05-04 20:38 | 51.28064 | 6.76450 | 127 ft | 2 kts | 326° |
| 2026-05-04 20:38 | 51.28107 | 6.76419 | 126 ft | 9 kts | 2° |
| 2026-05-04 20:38 | 51.28176 | 6.76427 | 131 ft | 10 kts | 6° |
| 2026-05-04 20:38 | 51.28239 | 6.76447 | 131 ft | 9 kts | 32° |
| 2026-05-04 20:39 | 51.28298 | 6.76494 | 126 ft | 10 kts | 356° |
| 2026-05-04 20:39 | 51.28370 | 6.76525 | 125 ft | 14 kts | 51° |
| 2026-05-04 20:39 | 51.28435 | 6.76664 | 126 ft | 17 kts | 53° |
| 2026-05-04 20:39 | 51.28512 | 6.76823 | 128 ft | 19 kts | 52° |
| 2026-05-04 20:40 | 51.28595 | 6.76997 | 130 ft | 20 kts | 52° |
| 2026-05-04 20:40 | 51.28680 | 6.77178 | 127 ft | 21 kts | 53° |
| 2026-05-04 20:40 | 51.28770 | 6.77366 | 130 ft | 22 kts | 53° |
| 2026-05-04 20:40 | 51.28850 | 6.77531 | 125 ft | 19 kts | 52° |
| 2026-05-04 20:41 | 51.28929 | 6.77704 | 125 ft | 20 kts | 54° |
| 2026-05-04 20:41 | 51.29013 | 6.77875 | 131 ft | 19 kts | 53° |
| 2026-05-04 20:41 | 51.29095 | 6.78048 | 132 ft | 20 kts | 52° |
| 2026-05-04 20:41 | 51.29174 | 6.78209 | 137 ft | 15 kts | 52° |
| 2026-05-04 20:42 | 51.29231 | 6.78331 | 142 ft | 12 kts | 54° |
| 2026-05-04 20:42 | 51.29270 | 6.78414 | 145 ft | 6 kts | 53° |
| 2026-05-04 20:42 | 51.29287 | 6.78451 | 147 ft | 3 kts | 52° |
| 2026-05-04 20:42 | 51.29303 | 6.78482 | 148 ft | 6 kts | 51° |
| 2026-05-04 20:43 | 51.29363 | 6.78553 | 152 ft | 12 kts | 27° |
| 2026-05-04 20:43 | 51.29466 | 6.78563 | 153 ft | 18 kts | 356° |
| 2026-05-04 20:43 | 51.29501 | 6.78437 | 151 ft | 17 kts | 238° |
| 2026-05-04 20:43 | 51.29408 | 6.78239 | 146 ft | 45 kts | 233° |
| 2026-05-04 20:44 | 51.29031 | 6.77450 | 131 ft | 128 kts | 232° |
| 2026-05-04 20:44 | 51.28367 | 6.76066 | 251 ft | 179 kts | 231° |
| 2026-05-04 20:44 | 51.27576 | 6.74423 | 1050 ft | 186 kts | 231° |
| 2026-05-04 20:44 | 51.26880 | 6.72667 | 1933 ft | 196 kts | 249° |
| 2026-05-04 20:45 | 51.26892 | 6.70374 | 2503 ft | 226 kts | 287° |
| 2026-05-04 20:45 | 51.27617 | 6.67973 | 3203 ft | 252 kts | 296° |
| 2026-05-04 20:45 | 51.28468 | 6.65438 | 4265 ft | 265 kts | 297° |
| 2026-05-04 20:45 | 51.29362 | 6.62816 | 5123 ft | 271 kts | 297° |
| 2026-05-04 20:46 | 51.30263 | 6.60169 | 6444 ft | 273 kts | 297° |
| 2026-05-04 20:46 | 51.31171 | 6.57478 | 7589 ft | 278 kts | 297° |
| 2026-05-04 20:46 | 51.32089 | 6.54727 | 8725 ft | 283 kts | 297° |
| 2026-05-04 20:46 | 51.33015 | 6.51923 | 9856 ft | 288 kts | 297° |
| 2026-05-04 20:47 | 51.33971 | 6.49010 | 10585 ft | 307 kts | 296° |
| 2026-05-04 20:47 | 51.34983 | 6.45852 | 11135 ft | 327 kts | 292° |
| 2026-05-04 20:47 | 51.35572 | 6.42320 | 11956 ft | 334 kts | 274° |
| 2026-05-04 20:47 | 51.35720 | 6.38584 | 12916 ft | 338 kts | 272° |
| 2026-05-04 20:48 | 51.35845 | 6.34811 | 13884 ft | 342 kts | 271° |
| 2026-05-04 20:48 | 51.35960 | 6.30976 | 14751 ft | 347 kts | 271° |
| 2026-05-04 20:48 | 51.36067 | 6.27149 | 15608 ft | 350 kts | 270° |
| 2026-05-04 20:48 | 51.36173 | 6.23185 | 16475 ft | 354 kts | 270° |
| 2026-05-04 20:49 | 51.36278 | 6.19212 | 17287 ft | 360 kts | 271° |
| 2026-05-04 20:49 | 51.36385 | 6.15178 | 18115 ft | 365 kts | 271° |
| 2026-05-04 20:49 | 51.36494 | 6.11095 | 18893 ft | 369 kts | 270° |
| 2026-05-04 20:49 | 51.36601 | 6.06998 | 19695 ft | 373 kts | 270° |
| 2026-05-04 20:50 | 51.36711 | 6.02833 | 20477 ft | 377 kts | 270° |
| 2026-05-04 20:50 | 51.36822 | 5.98617 | 20831 ft | 379 kts | 270° |
| 2026-05-04 20:50 | 51.36933 | 5.94403 | 20946 ft | 379 kts | 270° |
| 2026-05-04 20:50 | 51.37042 | 5.90188 | 20970 ft | 379 kts | 270° |
| 2026-05-04 20:51 | 51.37149 | 5.85979 | 20969 ft | 379 kts | 270° |
| 2026-05-04 20:51 | 51.37218 | 5.83188 | 20971 ft | 379 kts | 270° |
| 2026-05-04 20:51 | 51.37318 | 5.78966 | 20970 ft | 379 kts | 270° |
| 2026-05-04 20:51 | 51.37419 | 5.74750 | 20970 ft | 379 kts | 270° |
| 2026-05-04 20:52 | 51.37518 | 5.70535 | 20960 ft | 380 kts | 270° |
| 2026-05-04 20:52 | 51.37617 | 5.66297 | 20960 ft | 381 kts | 270° |
| 2026-05-04 20:52 | 51.37715 | 5.62052 | 20966 ft | 381 kts | 270° |
| 2026-05-04 20:52 | 51.37811 | 5.57814 | 20975 ft | 381 kts | 270° |
| 2026-05-04 20:53 | 51.37905 | 5.53568 | 20972 ft | 381 kts | 270° |
| 2026-05-04 20:53 | 51.37996 | 5.49326 | 20977 ft | 381 kts | 270° |
| 2026-05-04 20:53 | 51.38083 | 5.45077 | 20974 ft | 381 kts | 270° |
| 2026-05-04 20:53 | 51.38168 | 5.40889 | 20977 ft | 381 kts | 270° |
| 2026-05-04 20:54 | 51.38253 | 5.36639 | 20967 ft | 381 kts | 270° |
| 2026-05-04 20:54 | 51.38338 | 5.32400 | 20971 ft | 381 kts | 270° |
| 2026-05-04 20:54 | 51.38424 | 5.28150 | 20977 ft | 381 kts | 270° |
| 2026-05-04 20:54 | 51.38509 | 5.23895 | 20970 ft | 383 kts | 271° |
| 2026-05-04 20:55 | 51.38591 | 5.19618 | 20975 ft | 385 kts | 271° |
| 2026-05-04 20:55 | 51.38671 | 5.15330 | 20975 ft | 386 kts | 271° |
| 2026-05-04 20:55 | 51.38752 | 5.11039 | 20975 ft | 386 kts | 271° |
| 2026-05-04 20:55 | 51.38833 | 5.06747 | 20974 ft | 386 kts | 271° |
| 2026-05-04 20:56 | 51.38913 | 5.02457 | 20974 ft | 386 kts | 270° |
| 2026-05-04 20:56 | 51.38988 | 4.98157 | 20969 ft | 386 kts | 270° |
| 2026-05-04 20:56 | 51.39061 | 4.93861 | 20970 ft | 386 kts | 270° |
| 2026-05-04 20:56 | 51.39132 | 4.89564 | 20965 ft | 386 kts | 271° |
| 2026-05-04 20:57 | 51.39201 | 4.85274 | 20976 ft | 386 kts | 270° |
| 2026-05-04 20:57 | 51.39267 | 4.80984 | 20976 ft | 386 kts | 270° |
| 2026-05-04 20:57 | 51.39330 | 4.76687 | 20976 ft | 385 kts | 271° |
| 2026-05-04 20:57 | 51.39394 | 4.72383 | 21423 ft | 388 kts | 271° |
| 2026-05-04 20:58 | 51.39457 | 4.68065 | 22298 ft | 390 kts | 270° |
| 2026-05-04 20:58 | 51.39519 | 4.63700 | 23077 ft | 394 kts | 270° |
| 2026-05-04 20:58 | 51.39581 | 4.59282 | 23786 ft | 399 kts | 271° |
| 2026-05-04 20:58 | 51.39644 | 4.54836 | 24416 ft | 402 kts | 269° |
| 2026-05-04 20:59 | 51.39704 | 4.50338 | 25042 ft | 406 kts | 270° |
| 2026-05-04 20:59 | 51.39763 | 4.45807 | 25655 ft | 409 kts | 270° |
| 2026-05-04 20:59 | 51.39819 | 4.41230 | 26257 ft | 412 kts | 270° |
| 2026-05-04 20:59 | 51.39873 | 4.36627 | 26848 ft | 415 kts | 269° |
| 2026-05-04 21:00 | 51.39927 | 4.31978 | 27422 ft | 418 kts | 269° |
| 2026-05-04 21:00 | 51.39981 | 4.27325 | 27990 ft | 421 kts | 270° |
| 2026-05-04 21:00 | 51.40035 | 4.22619 | 28545 ft | 424 kts | 270° |
| 2026-05-04 21:00 | 51.40087 | 4.17880 | 29085 ft | 427 kts | 269° |
| 2026-05-04 21:01 | 51.40136 | 4.13098 | 29628 ft | 430 kts | 270° |
| 2026-05-04 21:01 | 51.40182 | 4.08290 | 30141 ft | 434 kts | 269° |
| 2026-05-04 21:01 | 51.40226 | 4.03446 | 30618 ft | 436 kts | 269° |
| 2026-05-04 21:01 | 51.40270 | 3.98583 | 31116 ft | 438 kts | 269° |
| 2026-05-04 21:02 | 51.40312 | 3.93684 | 31627 ft | 439 kts | 269° |
| 2026-05-04 21:02 | 51.40351 | 3.88845 | 31910 ft | 439 kts | 269° |
| 2026-05-04 21:02 | 51.40385 | 3.83930 | 31970 ft | 427 kts | 269° |
| 2026-05-04 21:02 | 51.40420 | 3.79270 | 31978 ft | 414 kts | 269° |
| 2026-05-04 21:03 | 51.40484 | 3.70180 | 31976 ft | 409 kts | 269° |
| 2026-05-04 21:03 | 51.40538 | 3.61059 | 31984 ft | 409 kts | 269° |
| 2026-05-04 21:04 | 51.40584 | 3.51947 | 31984 ft | 409 kts | 269° |
| 2026-05-04 21:04 | 51.40625 | 3.42843 | 31989 ft | 409 kts | 269° |
| 2026-05-04 21:05 | 51.40653 | 3.33730 | 31999 ft | 409 kts | 268° |
| 2026-05-04 21:05 | 51.40672 | 3.24627 | 32016 ft | 408 kts | 268° |
| 2026-05-04 21:06 | 51.40689 | 3.15548 | 32007 ft | 408 kts | 269° |
| 2026-05-04 21:06 | 51.41660 | 3.06584 | 32009 ft | 413 kts | 287° |
| 2026-05-04 21:07 | 51.43682 | 2.97978 | 32024 ft | 413 kts | 288° |
| 2026-05-04 21:07 | 51.45704 | 2.89364 | 32011 ft | 413 kts | 288° |
| 2026-05-04 21:08 | 51.47718 | 2.80751 | 32023 ft | 412 kts | 288° |
| 2026-05-04 21:08 | 51.49719 | 2.72127 | 32025 ft | 412 kts | 288° |
| 2026-05-04 21:09 | 51.51696 | 2.63550 | 32027 ft | 412 kts | 288° |
| 2026-05-04 21:09 | 51.52690 | 2.59231 | 31823 ft | 409 kts | 288° |
| 2026-05-04 21:09 | 51.53673 | 2.54956 | 31564 ft | 407 kts | 288° |
| 2026-05-04 21:10 | 51.54650 | 2.50693 | 31306 ft | 405 kts | 287° |
| 2026-05-04 21:10 | 51.55622 | 2.46453 | 31058 ft | 403 kts | 287° |
| 2026-05-04 21:10 | 51.56588 | 2.42229 | 30805 ft | 402 kts | 287° |
| 2026-05-04 21:10 | 51.57547 | 2.38020 | 30563 ft | 399 kts | 287° |
| 2026-05-04 21:11 | 51.58497 | 2.33852 | 30318 ft | 395 kts | 288° |
| 2026-05-04 21:11 | 51.59442 | 2.29717 | 30073 ft | 393 kts | 287° |
| 2026-05-04 21:11 | 51.60383 | 2.25595 | 29793 ft | 392 kts | 287° |
| 2026-05-04 21:11 | 51.61319 | 2.21482 | 29519 ft | 390 kts | 288° |
| 2026-05-04 21:12 | 51.62246 | 2.17383 | 29223 ft | 388 kts | 287° |
| 2026-05-04 21:12 | 51.63163 | 2.13311 | 28938 ft | 387 kts | 288° |
| 2026-05-04 21:12 | 51.64077 | 2.09242 | 28666 ft | 386 kts | 288° |
| 2026-05-04 21:12 | 51.64987 | 2.05197 | 28391 ft | 384 kts | 288° |
| 2026-05-04 21:13 | 51.65895 | 2.01157 | 28118 ft | 382 kts | 287° |
| 2026-05-04 21:13 | 51.66795 | 1.97146 | 27837 ft | 380 kts | 288° |
| 2026-05-04 21:13 | 51.67676 | 1.93202 | 27597 ft | 379 kts | 288° |
| 2026-05-04 21:13 | 51.68566 | 1.89205 | 27336 ft | 378 kts | 287° |
| 2026-05-04 21:14 | 51.69454 | 1.85211 | 27067 ft | 377 kts | 287° |
| 2026-05-04 21:14 | 51.70336 | 1.81243 | 26809 ft | 376 kts | 287° |
| 2026-05-04 21:14 | 51.71213 | 1.77290 | 26550 ft | 374 kts | 288° |
| 2026-05-04 21:14 | 51.72086 | 1.73345 | 26300 ft | 373 kts | 287° |
| 2026-05-04 21:15 | 51.72950 | 1.69432 | 25984 ft | 367 kts | 287° |
| 2026-05-04 21:15 | 51.73799 | 1.65576 | 25541 ft | 365 kts | 287° |
| 2026-05-04 21:15 | 51.74402 | 1.61622 | 25108 ft | 360 kts | 276° |
| 2026-05-04 21:15 | 51.74520 | 1.57613 | 24579 ft | 358 kts | 264° |
| 2026-05-04 21:16 | 51.74274 | 1.53618 | 24039 ft | 358 kts | 262° |
| 2026-05-04 21:16 | 51.74010 | 1.49621 | 23478 ft | 358 kts | 262° |
| 2026-05-04 21:16 | 51.73755 | 1.45630 | 22892 ft | 357 kts | 263° |
| 2026-05-04 21:16 | 51.73506 | 1.41664 | 22367 ft | 354 kts | 263° |
| 2026-05-04 21:17 | 51.73255 | 1.37730 | 21835 ft | 351 kts | 263° |
| 2026-05-04 21:17 | 51.73002 | 1.33821 | 21313 ft | 348 kts | 262° |
| 2026-05-04 21:17 | 51.72746 | 1.29952 | 20795 ft | 346 kts | 262° |
| 2026-05-04 21:17 | 51.72490 | 1.26104 | 20280 ft | 344 kts | 262° |
| 2026-05-04 21:18 | 51.72235 | 1.22276 | 19767 ft | 344 kts | 262° |
| 2026-05-04 21:18 | 51.71964 | 1.18252 | 19228 ft | 376 kts | 263° |
| 2026-05-04 21:18 | 51.71678 | 1.14002 | 18652 ft | 384 kts | 262° |
| 2026-05-04 21:18 | 51.71390 | 1.09723 | 18038 ft | 383 kts | 262° |
| 2026-05-04 21:19 | 51.71103 | 1.05468 | 17451 ft | 381 kts | 263° |
| 2026-05-04 21:19 | 51.70815 | 1.01227 | 16880 ft | 379 kts | 263° |
| 2026-05-04 21:19 | 51.70524 | 0.96996 | 16310 ft | 378 kts | 263° |
| 2026-05-04 21:19 | 51.70236 | 0.92807 | 15770 ft | 375 kts | 263° |
| 2026-05-04 21:20 | 51.69949 | 0.88652 | 15276 ft | 373 kts | 263° |
| 2026-05-04 21:20 | 51.69660 | 0.84505 | 14773 ft | 370 kts | 263° |
| 2026-05-04 21:20 | 51.69374 | 0.80393 | 14273 ft | 368 kts | 263° |
| 2026-05-04 21:20 | 51.69088 | 0.76325 | 13847 ft | 360 kts | 263° |
| 2026-05-04 21:21 | 51.68811 | 0.72425 | 13711 ft | 341 kts | 263° |
| 2026-05-04 21:21 | 51.68543 | 0.68684 | 13252 ft | 333 kts | 263° |
| 2026-05-04 21:21 | 51.68279 | 0.64997 | 12804 ft | 327 kts | 263° |
| 2026-05-04 21:21 | 51.68027 | 0.61515 | 12675 ft | 312 kts | 263° |
| 2026-05-04 21:22 | 51.67779 | 0.58116 | 12042 ft | 302 kts | 263° |
| 2026-05-04 21:22 | 51.67537 | 0.54787 | 11288 ft | 297 kts | 263° |
| 2026-05-04 21:22 | 51.67301 | 0.51512 | 10676 ft | 289 kts | 263° |
| 2026-05-04 21:22 | 51.67070 | 0.48323 | 10331 ft | 287 kts | 263° |
| 2026-05-04 21:23 | 51.66833 | 0.45063 | 9936 ft | 288 kts | 263° |
| 2026-05-04 21:23 | 51.66602 | 0.41901 | 9527 ft | 287 kts | 263° |
| 2026-05-04 21:23 | 51.66365 | 0.38730 | 9137 ft | 284 kts | 263° |
| 2026-05-04 21:23 | 51.66130 | 0.35598 | 8751 ft | 281 kts | 263° |
| 2026-05-04 21:24 | 51.65898 | 0.32473 | 8374 ft | 279 kts | 263° |
| 2026-05-04 21:24 | 51.65666 | 0.29391 | 8000 ft | 276 kts | 263° |
| 2026-05-04 21:24 | 51.65435 | 0.26330 | 7626 ft | 274 kts | 263° |
| 2026-05-04 21:24 | 51.65204 | 0.23290 | 7310 ft | 270 kts | 264° |
| 2026-05-04 21:25 | 51.64981 | 0.20356 | 7189 ft | 259 kts | 264° |
| 2026-05-04 21:25 | 51.64770 | 0.17540 | 7081 ft | 249 kts | 264° |
| 2026-05-04 21:25 | 51.64568 | 0.14832 | 7054 ft | 237 kts | 264° |
| 2026-05-04 21:25 | 51.64403 | 0.12200 | 7056 ft | 237 kts | 266° |
| 2026-05-04 21:26 | 51.64264 | 0.09558 | 7051 ft | 236 kts | 266° |
| 2026-05-04 21:26 | 51.64127 | 0.06914 | 7052 ft | 237 kts | 266° |
| 2026-05-04 21:26 | 51.63988 | 0.04280 | 7050 ft | 236 kts | 265° |
| 2026-05-04 21:26 | 51.63848 | 0.01639 | 7055 ft | 237 kts | 266° |
| 2026-05-04 21:27 | 51.63706 | -0.01002 | 7065 ft | 236 kts | 265° |
| 2026-05-04 21:27 | 51.63563 | -0.03622 | 7056 ft | 235 kts | 265° |
| 2026-05-04 21:27 | 51.63417 | -0.06237 | 7060 ft | 235 kts | 265° |
| 2026-05-04 21:27 | 51.63267 | -0.08869 | 7056 ft | 237 kts | 265° |
| 2026-05-04 21:28 | 51.63117 | -0.11501 | 7051 ft | 235 kts | 265° |
| 2026-05-04 21:28 | 51.62967 | -0.14151 | 7052 ft | 237 kts | 265° |
| 2026-05-04 21:28 | 51.62820 | -0.16761 | 7053 ft | 238 kts | 265° |
| 2026-05-04 21:28 | 51.62671 | -0.19404 | 7063 ft | 236 kts | 265° |
| 2026-05-04 21:29 | 51.62518 | -0.22068 | 7056 ft | 235 kts | 265° |
| 2026-05-04 21:29 | 51.62366 | -0.24659 | 7058 ft | 236 kts | 265° |
| 2026-05-04 21:29 | 51.62214 | -0.27291 | 7053 ft | 235 kts | 265° |
| 2026-05-04 21:29 | 51.62062 | -0.29912 | 7053 ft | 236 kts | 265° |
| 2026-05-04 21:30 | 51.61909 | -0.32534 | 7053 ft | 239 kts | 265° |
| 2026-05-04 21:30 | 51.61751 | -0.35235 | 7051 ft | 239 kts | 265° |
| 2026-05-04 21:30 | 51.61595 | -0.37868 | 7061 ft | 231 kts | 265° |
| 2026-05-04 21:30 | 51.61447 | -0.40359 | 7053 ft | 215 kts | 265° |
| 2026-05-04 21:31 | 51.61183 | -0.44817 | 7060 ft | 190 kts | 265° |
| 2026-05-04 21:31 | 51.61053 | -0.47000 | 7063 ft | 207 kts | 265° |
| 2026-05-04 21:31 | 51.60959 | -0.48576 | 7059 ft | 212 kts | 265° |
| 2026-05-04 21:32 | 51.60817 | -0.50915 | 7055 ft | 213 kts | 264° |
| 2026-05-04 21:32 | 51.60671 | -0.53291 | 7055 ft | 214 kts | 264° |
| 2026-05-04 21:32 | 51.60523 | -0.55689 | 7060 ft | 220 kts | 265° |
| 2026-05-04 21:32 | 51.60369 | -0.58217 | 7058 ft | 232 kts | 265° |
| 2026-05-04 21:33 | 51.60213 | -0.60814 | 7051 ft | 234 kts | 265° |
| 2026-05-04 21:33 | 51.60053 | -0.63426 | 7050 ft | 236 kts | 264° |
| 2026-05-04 21:33 | 51.59892 | -0.66065 | 6966 ft | 238 kts | 264° |
| 2026-05-04 21:33 | 51.59728 | -0.68703 | 6685 ft | 236 kts | 264° |
| 2026-05-04 21:34 | 51.59563 | -0.71317 | 6433 ft | 233 kts | 265° |
| 2026-05-04 21:34 | 51.59402 | -0.73905 | 6123 ft | 233 kts | 265° |
| 2026-05-04 21:34 | 51.59151 | -0.76470 | 5855 ft | 233 kts | 251° |
| 2026-05-04 21:34 | 51.58232 | -0.78582 | 5502 ft | 235 kts | 219° |
| 2026-05-04 21:35 | 51.56730 | -0.79603 | 5154 ft | 238 kts | 186° |
| 2026-05-04 21:35 | 51.55093 | -0.79345 | 4831 ft | 239 kts | 170° |
| 2026-05-04 21:35 | 51.53431 | -0.79096 | 4474 ft | 240 kts | 177° |
| 2026-05-04 21:35 | 51.51769 | -0.78998 | 4049 ft | 238 kts | 172° |
| 2026-05-04 21:36 | 51.50220 | -0.78232 | 3650 ft | 231 kts | 150° |
| 2026-05-04 21:36 | 51.48984 | -0.76755 | 3482 ft | 208 kts | 131° |
| 2026-05-04 21:36 | 51.48201 | -0.75034 | 3346 ft | 175 kts | 114° |
| 2026-05-04 21:36 | 51.47787 | -0.73359 | 3171 ft | 147 kts | 102° |
| 2026-05-04 21:37 | 51.47639 | -0.71864 | 2985 ft | 127 kts | 91° |
| 2026-05-04 21:37 | 51.47638 | -0.70499 | 2826 ft | 121 kts | 88° |
| 2026-05-04 21:37 | 51.47645 | -0.69173 | 2660 ft | 118 kts | 87° |
| 2026-05-04 21:37 | 51.47653 | -0.67864 | 2507 ft | 116 kts | 87° |
| 2026-05-04 21:38 | 51.47660 | -0.66567 | 2359 ft | 116 kts | 88° |
| 2026-05-04 21:38 | 51.47667 | -0.65269 | 2201 ft | 116 kts | 86° |
| 2026-05-04 21:38 | 51.47674 | -0.63983 | 2044 ft | 115 kts | 86° |
| 2026-05-04 21:38 | 51.47681 | -0.62709 | 1890 ft | 114 kts | 86° |
| 2026-05-04 21:39 | 51.47688 | -0.61439 | 1734 ft | 114 kts | 86° |
| 2026-05-04 21:39 | 51.47694 | -0.60162 | 1572 ft | 114 kts | 87° |
| 2026-05-04 21:39 | 51.47698 | -0.58887 | 1447 ft | 115 kts | 87° |
| 2026-05-04 21:39 | 51.47688 | -0.57629 | 1259 ft | 114 kts | 87° |
| 2026-05-04 21:40 | 51.47692 | -0.56335 | 1068 ft | 115 kts | 85° |
| 2026-05-04 21:40 | 51.47722 | -0.55075 | 942 ft | 116 kts | 85° |
| 2026-05-04 21:40 | 51.47743 | -0.53772 | 762 ft | 118 kts | 86° |
| 2026-05-04 21:40 | 51.47728 | -0.52458 | 606 ft | 118 kts | 89° |
| 2026-05-04 21:41 | 51.47731 | -0.51129 | 455 ft | 119 kts | 83° |
| 2026-05-04 21:41 | 51.47742 | -0.49817 | 284 ft | 117 kts | 84° |
| 2026-05-04 21:41 | 51.47751 | -0.48510 | 143 ft | 118 kts | 86° |
| 2026-05-04 21:41 | 51.47749 | -0.47295 | 88 ft | 99 kts | 88° |
| 2026-05-04 21:42 | 51.47758 | -0.46595 | 91 ft | 41 kts | 89° |
| 2026-05-04 21:42 | 51.47753 | -0.46245 | 89 ft | 25 kts | 105° |
| 2026-05-04 21:42 | 51.47677 | -0.46117 | 86 ft | 14 kts | 143° |
| 2026-05-04 21:42 | 51.47659 | -0.46096 | 88 ft | 2 kts | 145° |
| 2026-05-04 21:43 | 51.47655 | -0.46092 | 89 ft | 3 kts | 145° |
| 2026-05-04 21:43 | 51.47627 | -0.46063 | 88 ft | 7 kts | 156° |
| 2026-05-04 21:44 | 51.47594 | -0.46117 | 89 ft | 10 kts | 254° |
| 2026-05-04 21:44 | 51.47596 | -0.46252 | 88 ft | 14 kts | 271° |
| 2026-05-04 21:44 | 51.47591 | -0.46439 | 87 ft | 19 kts | 270° |
| 2026-05-04 21:44 | 51.47591 | -0.46646 | 87 ft | 17 kts | 269° |
| 2026-05-04 21:45 | 51.47591 | -0.46723 | 87 ft | 4 kts | 269° |
| 2026-05-04 21:45 | 51.47590 | -0.46775 | 87 ft | 1 kts | 270° |
| 2026-05-04 21:46 | 51.47590 | -0.46777 | 87 ft | 2 kts | 270° |
| 2026-05-04 21:46 | 51.47590 | -0.46821 | 87 ft | 7 kts | 267° |
| 2026-05-04 21:46 | 51.47584 | -0.46925 | 90 ft | 12 kts | 267° |
| 2026-05-04 21:46 | 51.47584 | -0.47086 | 87 ft | 17 kts | 270° |
| 2026-05-04 21:47 | 51.47582 | -0.47308 | 88 ft | 23 kts | 269° |
| 2026-05-04 21:47 | 51.47581 | -0.47560 | 90 ft | 24 kts | 269° |
| 2026-05-04 21:47 | 51.47580 | -0.47781 | 90 ft | 15 kts | 269° |
| 2026-05-04 21:47 | 51.47579 | -0.47978 | 88 ft | 20 kts | 269° |
| 2026-05-04 21:48 | 51.47579 | -0.48054 | 89 ft | 6 kts | 270° |
| 2026-05-04 21:48 | 51.47579 | -0.48146 | 89 ft | 11 kts | 270° |
| 2026-05-04 21:48 | 51.47579 | -0.48281 | 89 ft | 3 kts | 270° |
| 2026-05-04 21:48 | 51.47571 | -0.48343 | 88 ft | 8 kts | 236° |
| 2026-05-04 21:49 | 51.47505 | -0.48359 | 86 ft | 12 kts | 183° |
| 2026-05-04 21:49 | 51.47455 | -0.48357 | 86 ft | 8 kts | 180° |
| 2026-05-04 21:49 | 51.47382 | -0.48357 | 87 ft | 14 kts | 180° |
| 2026-05-04 21:49 | 51.47344 | -0.48357 | 90 ft | 0 kts | 180° |
| 2026-05-04 21:50 | 51.47340 | -0.48357 | 90 ft | 3 kts | 180° |
| 2026-05-04 21:50 | 51.47299 | -0.48357 | 88 ft | 9 kts | 180° |
| 2026-05-04 21:50 | 51.47222 | -0.48356 | 89 ft | 14 kts | 179° |
| 2026-05-04 21:50 | 51.47111 | -0.48357 | 88 ft | 19 kts | 180° |
| 2026-05-04 21:51 | 51.46975 | -0.48357 | 86 ft | 21 kts | 179° |
| 2026-05-04 21:51 | 51.46886 | -0.48369 | 87 ft | 2 kts | 221° |
| 2026-05-04 21:51 | 51.46876 | -0.48413 | 89 ft | 6 kts | 274° |
| 2026-05-04 21:51 | 51.46877 | -0.48514 | 86 ft | 12 kts | 269° |
| 2026-05-04 21:52 | 51.46877 | -0.48661 | 86 ft | 11 kts | 270° |
| 2026-05-04 21:52 | 51.46876 | -0.48755 | 86 ft | 5 kts | 269° |
| 2026-05-04 21:52 | 51.46902 | -0.48783 | 88 ft | 3 kts | 360° |
| 2026-05-04 21:52 | 51.46921 | -0.48787 | 88 ft | 2 kts | 1° |
| 2026-05-04 21:53 | 51.46930 | -0.48787 | 89 ft | 0 kts | 0° |